Time;durP1;ratioP1;P1;durP2;ratioP2;P2;SDS_P1;SDS_P2;PMS_P1;PMS_P2;Temp;Humidity;BMP_temperature;BMP_pressure;BME280_temperature;BME280_humidity;BME280_pressure;Samples;Min_cycle;Max_cycle;Signal;HPM_P1;HPM_P2
2021/08/13 00:00:33;;;;;;;10.00;6.00;;;12.50;99.90;;;;;;4409859;28;657058;-71
2021/08/13 00:03:21;;;;;;;8.15;5.90;;;12.50;99.90;;;;;;4431154;28;657994;-71
2021/08/13 00:06:10;;;;;;;9.00;6.63;;;12.50;99.90;;;;;;4401466;28;657037;-71
2021/08/13 00:08:57;;;;;;;11.63;6.60;;;12.50;99.90;;;;;;4446686;28;656562;-71
2021/08/13 00:11:45;;;;;;;14.67;6.70;;;12.50;99.90;;;;;;4420556;28;659080;-71
2021/08/13 00:14:32;;;;;;;12.57;6.90;;;12.60;99.90;;;;;;4419338;28;657198;-71
2021/08/13 00:17:20;;;;;;;12.13;7.10;;;12.60;99.90;;;;;;4407944;28;658980;-71
2021/08/13 00:20:08;;;;;;;13.47;6.87;;;12.60;99.90;;;;;;4426104;28;658078;-71
2021/08/13 00:22:58;;;;;;;12.17;7.07;;;12.50;99.90;;;;;;4408210;28;657868;-71
2021/08/13 00:25:45;;;;;;;10.10;7.17;;;12.50;99.90;;;;;;4392576;28;658683;-71
2021/08/13 00:28:33;;;;;;;11.10;7.13;;;12.50;99.90;;;;;;4406429;28;657288;-71
2021/08/13 00:31:20;;;;;;;11.77;7.50;;;12.50;99.90;;;;;;4446834;28;657851;-71
2021/08/13 00:34:08;;;;;;;13.90;7.40;;;12.50;99.90;;;;;;4420355;28;657655;-71
2021/08/13 00:36:56;;;;;;;11.97;7.13;;;12.50;99.90;;;;;;4444012;28;658576;-71
2021/08/13 00:39:44;;;;;;;11.83;7.00;;;12.40;99.90;;;;;;4422525;28;657915;-71
2021/08/13 00:42:32;;;;;;;9.95;6.95;;;12.40;99.90;;;;;;4439680;28;657698;-71
2021/08/13 00:45:19;;;;;;;9.13;6.60;;;12.40;99.90;;;;;;4394990;28;657929;-71
2021/08/13 00:48:07;;;;;;;12.77;7.10;;;12.40;99.90;;;;;;4430161;28;656869;-71
2021/08/13 00:50:55;;;;;;;10.60;6.50;;;12.40;99.90;;;;;;4407615;28;658076;-71
2021/08/13 00:53:43;;;;;;;9.33;6.43;;;12.40;99.90;;;;;;4400920;28;657682;-71
2021/08/13 00:56:32;;;;;;;10.77;6.60;;;12.30;99.90;;;;;;4423772;28;656813;-71
2021/08/13 00:59:19;;;;;;;12.00;6.63;;;12.30;99.90;;;;;;4413907;28;657918;-71
2021/08/13 01:02:07;;;;;;;11.20;6.43;;;12.30;99.90;;;;;;4446843;28;657979;-71
2021/08/13 01:04:54;;;;;;;10.60;6.40;;;12.40;99.90;;;;;;4394471;28;659065;-71
2021/08/13 01:07:42;;;;;;;8.17;5.97;;;12.40;99.90;;;;;;4420366;28;658528;-71
2021/08/13 01:10:31;;;;;;;7.37;5.97;;;12.40;99.90;;;;;;4395524;28;657598;-71
2021/08/13 01:13:24;;;;;;;8.30;5.63;;;12.40;99.90;;;;;;4394388;28;656802;-71
2021/08/13 01:16:12;;;;;;;8.17;5.90;;;12.40;99.90;;;;;;4395542;28;656737;-70
2021/08/13 01:19:02;;;;;;;8.70;5.77;;;12.30;99.90;;;;;;4401914;28;656313;-70
2021/08/13 01:21:51;;;;;;;12.90;5.87;;;12.30;99.90;;;;;;4400878;28;656646;-71
2021/08/13 01:24:41;;;;;;;8.60;5.43;;;12.30;99.90;;;;;;4403926;28;658027;-70
2021/08/13 01:27:31;;;;;;;10.67;5.93;;;12.20;99.90;;;;;;4406162;28;656875;-70
2021/08/13 01:30:21;;;;;;;10.13;6.00;;;12.20;99.90;;;;;;4400630;28;657481;-70
2021/08/13 01:33:12;;;;;;;9.43;5.80;;;12.10;99.90;;;;;;4400215;28;658072;-71
2021/08/13 01:36:03;;;;;;;13.77;6.90;;;12.10;99.90;;;;;;4408917;28;656587;-71
2021/08/13 01:38:52;;;;;;;10.47;6.80;;;12.20;99.90;;;;;;4396952;28;658750;-70
2021/08/13 01:41:39;;;;;;;11.97;6.40;;;12.20;99.90;;;;;;4403262;28;657816;-70
2021/08/13 01:44:27;;;;;;;12.07;6.40;;;12.20;99.90;;;;;;4424960;28;657547;-70
2021/08/13 01:47:14;;;;;;;11.07;6.70;;;12.10;99.90;;;;;;4403708;28;657647;-70
2021/08/13 01:50:04;;;;;;;14.80;6.67;;;12.10;99.90;;;;;;4423032;28;657896;-70
2021/08/13 01:52:52;;;;;;;9.67;6.50;;;12.10;99.90;;;;;;4404275;28;658100;-71
2021/08/13 01:55:39;;;;;;;10.00;6.27;;;12.10;99.90;;;;;;4415887;28;656299;-70
2021/08/13 01:58:27;;;;;;;9.87;6.27;;;12.10;99.90;;;;;;4419208;28;657830;-70
2021/08/13 02:01:14;;;;;;;11.83;6.80;;;12.10;99.90;;;;;;4405529;28;657692;-71
2021/08/13 02:04:02;;;;;;;12.47;6.67;;;12.10;99.90;;;;;;4433627;28;657755;-70
2021/08/13 02:06:51;;;;;;;10.40;7.03;;;12.10;99.90;;;;;;4393858;28;658550;-71
2021/08/13 02:09:40;;;;;;;14.13;7.47;;;12.00;99.90;;;;;;4397042;28;657785;-71
2021/08/13 02:12:28;;;;;;;11.70;7.20;;;12.00;99.90;;;;;;4416599;28;657398;-71
2021/08/13 02:15:16;;;;;;;10.97;7.67;;;12.00;99.90;;;;;;4418289;28;658115;-71
2021/08/13 02:18:05;;;;;;;11.87;7.77;;;12.00;99.90;;;;;;4398743;28;657538;-70
2021/08/13 02:20:56;;;;;;;10.63;7.97;;;12.00;99.90;;;;;;4424623;28;657773;-70
2021/08/13 02:23:45;;;;;;;11.27;7.27;;;12.10;99.90;;;;;;4422860;28;657977;-71
2021/08/13 02:26:33;;;;;;;16.13;8.57;;;12.00;99.90;;;;;;4426805;28;657586;-70
2021/08/13 02:29:21;;;;;;;12.27;7.57;;;12.00;99.90;;;;;;4421904;28;659278;-71
2021/08/13 02:32:09;;;;;;;10.70;7.40;;;12.00;99.90;;;;;;4412386;28;657564;-71
2021/08/13 02:34:56;;;;;;;12.97;7.50;;;11.90;99.90;;;;;;4423588;28;658101;-71
2021/08/13 02:37:48;;;;;;;10.57;7.53;;;12.00;99.90;;;;;;4406203;28;657417;-70
2021/08/13 02:40:38;;;;;;;14.47;8.03;;;11.90;99.90;;;;;;4419476;28;658510;-70
2021/08/13 02:43:28;;;;;;;12.55;7.90;;;11.90;99.90;;;;;;4400641;28;658747;-71
2021/08/13 02:46:15;;;;;;;12.70;7.97;;;11.90;99.90;;;;;;4389966;28;658584;-70
2021/08/13 02:49:03;;;;;;;14.20;8.30;;;11.90;99.90;;;;;;4422271;28;657367;-70
2021/08/13 02:51:54;;;;;;;14.23;7.73;;;12.00;99.90;;;;;;4425771;28;658321;-71
2021/08/13 02:54:42;;;;;;;12.20;8.40;;;12.00;99.90;;;;;;4412215;28;657529;-71
2021/08/13 02:57:33;;;;;;;12.43;8.57;;;12.00;99.90;;;;;;4404559;28;658327;-71
2021/08/13 03:00:20;;;;;;;15.43;8.27;;;12.00;99.90;;;;;;4402983;28;658531;-71
2021/08/13 03:03:08;;;;;;;11.70;8.00;;;12.00;99.90;;;;;;4411745;28;657870;-71
2021/08/13 03:05:56;;;;;;;11.27;7.83;;;11.90;99.90;;;;;;4432734;28;657680;-71
2021/08/13 03:08:43;;;;;;;10.87;7.93;;;11.90;99.90;;;;;;4404920;28;657798;-71
2021/08/13 03:11:31;;;;;;;14.43;8.50;;;11.90;99.90;;;;;;4426983;28;658114;-71
2021/08/13 03:14:20;;;;;;;13.53;8.53;;;11.90;99.90;;;;;;4421199;28;657671;-71
2021/08/13 03:17:08;;;;;;;15.07;8.57;;;12.00;99.90;;;;;;4432823;28;657546;-71
2021/08/13 03:20:39;;;;;;;11.43;7.90;;;12.00;99.90;;;;;;4448223;28;659344;-71
2021/08/13 03:23:26;;;;;;;13.30;8.40;;;12.00;99.90;;;;;;4414639;28;657624;-71
2021/08/13 03:26:14;;;;;;;13.63;8.57;;;12.00;99.90;;;;;;4398872;28;657650;-71
2021/08/13 03:29:02;;;;;;;12.53;8.93;;;12.00;99.90;;;;;;4427069;28;657978;-71
2021/08/13 03:31:51;;;;;;;15.17;8.83;;;12.00;99.90;;;;;;4404305;28;659256;-71
2021/08/13 03:34:39;;;;;;;13.90;8.27;;;12.00;99.90;;;;;;4414315;28;657525;-71
2021/08/13 03:37:26;;;;;;;14.33;8.40;;;12.00;99.90;;;;;;4438068;28;658050;-71
2021/08/13 03:40:14;;;;;;;13.63;8.50;;;12.00;99.90;;;;;;4394935;28;657398;-71
2021/08/13 03:43:01;;;;;;;15.50;9.10;;;12.10;99.90;;;;;;4413253;28;657630;-71
2021/08/13 03:45:51;;;;;;;11.70;8.77;;;12.20;99.90;;;;;;4399683;28;657908;-71
2021/08/13 03:48:40;;;;;;;12.00;8.50;;;12.20;99.90;;;;;;4406111;28;657813;-71
2021/08/13 03:51:27;;;;;;;12.37;8.17;;;12.30;99.90;;;;;;4417791;28;657876;-71
2021/08/13 03:54:15;;;;;;;11.70;8.03;;;12.30;99.90;;;;;;4395313;28;659080;-71
2021/08/13 03:57:02;;;;;;;10.67;8.30;;;12.30;99.90;;;;;;4416916;28;657519;-71
2021/08/13 03:59:50;;;;;;;10.70;8.32;;;12.40;99.90;;;;;;4394300;28;658582;-71
2021/08/13 04:02:38;;;;;;;10.53;7.93;;;12.40;99.90;;;;;;4415639;28;658193;-71
2021/08/13 04:05:30;;;;;;;9.40;8.03;;;12.50;99.90;;;;;;4422515;28;658757;-71
2021/08/13 04:08:18;;;;;;;11.10;8.77;;;12.60;99.90;;;;;;4385895;28;656980;-71
2021/08/13 04:11:06;;;;;;;10.87;8.70;;;12.70;99.90;;;;;;4420626;28;658698;-71
2021/08/13 04:13:53;;;;;;;11.23;8.60;;;12.80;99.90;;;;;;4410285;28;657404;-71
2021/08/13 04:16:41;;;;;;;11.17;8.07;;;13.00;99.90;;;;;;4424827;28;658391;-71
2021/08/13 04:19:28;;;;;;;13.37;8.47;;;13.10;99.90;;;;;;4411470;28;657660;-71
2021/08/13 04:22:18;;;;;;;12.70;8.93;;;13.30;99.90;;;;;;4417675;28;657579;-71
2021/08/13 04:25:06;;;;;;;12.77;9.00;;;13.50;99.90;;;;;;4394322;28;659373;-71
2021/08/13 04:27:53;;;;;;;9.33;7.87;;;13.70;99.90;;;;;;4406146;28;657577;-71
2021/08/13 04:30:41;;;;;;;11.07;8.10;;;13.90;99.90;;;;;;4406975;28;657810;-71
2021/08/13 04:33:29;;;;;;;10.80;7.87;;;14.00;99.90;;;;;;4385427;28;657555;-71
2021/08/13 04:36:16;;;;;;;9.77;8.07;;;14.20;99.90;;;;;;4427666;28;658734;-71
2021/08/13 04:39:05;;;;;;;11.10;8.00;;;14.30;99.90;;;;;;4390556;28;656615;-71
2021/08/13 04:41:53;;;;;;;11.63;8.40;;;14.50;99.90;;;;;;4390362;28;658082;-71
2021/08/13 04:44:41;;;;;;;11.90;8.50;;;14.60;99.90;;;;;;4414148;28;659000;-71
2021/08/13 04:47:28;;;;;;;13.33;7.50;;;14.80;99.90;;;;;;4400908;28;657655;-71
2021/08/13 04:50:16;;;;;;;18.50;7.90;;;14.80;99.90;;;;;;4404793;28;658267;-71
2021/08/13 04:53:04;;;;;;;23.07;7.87;;;14.90;99.90;;;;;;4389289;28;657997;-71
2021/08/13 04:55:53;;;;;;;14.40;8.17;;;15.00;99.90;;;;;;4403497;28;658725;-71
2021/08/13 04:58:40;;;;;;;15.60;7.70;;;15.20;99.90;;;;;;4376878;28;658662;-71
2021/08/13 05:01:28;;;;;;;12.30;7.67;;;15.20;99.90;;;;;;4382801;28;658546;-70
2021/08/13 05:04:17;;;;;;;14.07;7.13;;;15.30;99.90;;;;;;4408675;28;659059;-71
2021/08/13 05:07:04;;;;;;;17.27;7.37;;;15.40;99.90;;;;;;4389457;28;658077;-71
2021/08/13 05:09:52;;;;;;;14.40;7.80;;;15.50;99.90;;;;;;4408296;28;657944;-71
2021/08/13 05:12:41;;;;;;;13.23;7.73;;;15.60;99.90;;;;;;4392924;28;658246;-71
2021/08/13 05:15:29;;;;;;;12.50;8.15;;;15.70;99.90;;;;;;4376356;28;657781;-71
2021/08/13 05:18:16;;;;;;;10.57;7.30;;;15.90;99.90;;;;;;4402946;28;657793;-71
2021/08/13 05:21:06;;;;;;;10.53;7.83;;;16.00;99.90;;;;;;4406687;28;657870;-70
2021/08/13 05:23:53;;;;;;;8.83;6.93;;;16.10;99.90;;;;;;4388690;28;657443;-70
2021/08/13 05:26:41;;;;;;;10.90;8.10;;;16.30;99.90;;;;;;4422852;28;657050;-70
2021/08/13 05:29:30;;;;;;;9.63;7.63;;;16.40;99.90;;;;;;4423897;28;657579;-70
2021/08/13 05:32:18;;;;;;;11.97;8.03;;;16.50;99.90;;;;;;4425497;28;656652;-70
2021/08/13 05:35:07;;;;;;;10.17;7.77;;;16.70;99.90;;;;;;4435821;28;658857;-70
2021/08/13 05:37:57;;;;;;;14.57;7.50;;;16.90;99.90;;;;;;4398984;28;657818;-70
2021/08/13 05:40:44;;;;;;;10.80;7.37;;;17.10;99.90;;;;;;4406035;28;658380;-70
2021/08/13 05:43:32;;;;;;;9.20;6.80;;;17.30;99.90;;;;;;4420469;28;657893;-70
2021/08/13 05:46:21;;;;;;;8.77;7.00;;;17.50;99.90;;;;;;4397833;28;658218;-70
2021/08/13 05:49:09;;;;;;;9.77;6.97;;;17.60;99.90;;;;;;4424921;28;657438;-70
2021/08/13 05:51:56;;;;;;;10.00;7.47;;;17.70;99.90;;;;;;4419343;28;656855;-70
2021/08/13 05:54:44;;;;;;;9.60;6.67;;;17.90;99.90;;;;;;4401946;28;657297;-70
2021/08/13 05:57:32;;;;;;;14.33;7.00;;;18.10;99.90;;;;;;4420294;28;656920;-70
2021/08/13 06:00:20;;;;;;;11.37;7.40;;;18.20;99.90;;;;;;4410202;28;657802;-70
2021/08/13 06:03:08;;;;;;;8.83;6.70;;;18.40;99.90;;;;;;4421843;28;658110;-70
2021/08/13 06:05:56;;;;;;;8.80;6.23;;;18.70;99.90;;;;;;4397814;28;657338;-70
2021/08/13 06:08:44;;;;;;;7.00;5.60;;;18.70;99.90;;;;;;4402874;28;656942;-70
2021/08/13 06:11:31;;;;;;;8.33;6.03;;;18.80;99.90;;;;;;4415611;28;657159;-70
2021/08/13 06:14:19;;;;;;;9.50;6.30;;;18.90;99.90;;;;;;4403356;28;657627;-70
2021/08/13 06:17:06;;;;;;;8.47;5.37;;;19.00;99.90;;;;;;4427808;28;656887;-69
2021/08/13 06:19:56;;;;;;;9.23;6.13;;;19.00;99.90;;;;;;4411571;28;656910;-70
2021/08/13 06:22:43;;;;;;;8.27;6.00;;;19.00;99.90;;;;;;4411724;28;657034;-70
2021/08/13 06:25:31;;;;;;;8.13;5.73;;;19.10;99.90;;;;;;4420994;28;657462;-69
2021/08/13 06:28:19;;;;;;;8.70;5.53;;;19.20;99.90;;;;;;4415409;28;656481;-67
2021/08/13 06:31:06;;;;;;;12.23;5.40;;;19.20;99.90;;;;;;4430348;28;658152;-70
2021/08/13 06:33:54;;;;;;;10.60;6.03;;;19.30;99.90;;;;;;4415638;28;657806;-70
2021/08/13 06:36:43;;;;;;;8.73;5.60;;;19.40;99.90;;;;;;4428324;28;658536;-69
2021/08/13 06:39:31;;;;;;;10.97;5.80;;;19.50;99.90;;;;;;4397396;28;657427;-69
2021/08/13 06:42:18;;;;;;;8.30;5.80;;;19.70;99.90;;;;;;4399390;28;657615;-69
2021/08/13 06:45:07;;;;;;;8.57;5.80;;;19.80;99.90;;;;;;4422501;28;657302;-69
2021/08/13 06:47:55;;;;;;;9.33;5.37;;;20.00;99.90;;;;;;4404446;28;657775;-70
2021/08/13 06:50:43;;;;;;;7.90;5.27;;;20.20;99.90;;;;;;4411927;28;656281;-70
2021/08/13 06:53:32;;;;;;;7.73;5.30;;;20.40;99.90;;;;;;4428422;28;657685;-69
2021/08/13 06:56:19;;;;;;;9.50;5.53;;;20.60;99.90;;;;;;4405500;28;656853;-70
2021/08/13 06:59:07;;;;;;;9.43;5.40;;;20.80;99.90;;;;;;4420978;28;657633;-70
2021/08/13 07:01:55;;;;;;;9.93;5.80;;;21.00;99.90;;;;;;4400437;28;658301;-69
2021/08/13 07:04:42;;;;;;;11.43;5.67;;;21.20;99.90;;;;;;4426495;28;656096;-70
2021/08/13 07:07:31;;;;;;;6.93;5.13;;;21.40;99.90;;;;;;4404582;28;658691;-70
2021/08/13 07:10:20;;;;;;;7.83;4.80;;;21.50;99.90;;;;;;4406285;28;656667;-70
2021/08/13 07:13:08;;;;;;;5.50;4.60;;;21.70;99.90;;;;;;4423693;28;656312;-69
2021/08/13 07:15:56;;;;;;;10.37;5.27;;;21.90;99.90;;;;;;4428105;28;658005;-69
2021/08/13 07:18:44;;;;;;;10.47;5.40;;;22.10;99.90;;;;;;4403248;28;657460;-70
2021/08/13 07:21:32;;;;;;;7.77;4.40;;;22.20;99.90;;;;;;4437914;28;657748;-70
2021/08/13 07:24:21;;;;;;;8.33;4.47;;;22.40;99.90;;;;;;4422158;28;656588;-70
2021/08/13 07:27:10;;;;;;;8.20;5.10;;;22.70;99.90;;;;;;4419655;28;656404;-70
2021/08/13 07:29:58;;;;;;;9.70;4.53;;;23.10;99.90;;;;;;4420154;28;656393;-69
2021/08/13 07:32:46;;;;;;;7.10;4.73;;;23.20;99.90;;;;;;4442081;28;656398;-70
2021/08/13 07:35:33;;;;;;;8.20;4.27;;;23.20;99.90;;;;;;4420387;28;656629;-69
2021/08/13 07:38:21;;;;;;;5.90;4.27;;;23.30;99.90;;;;;;4440274;28;657120;-69
2021/08/13 07:41:09;;;;;;;6.70;4.43;;;23.30;99.90;;;;;;4423200;28;656543;-68
2021/08/13 07:43:58;;;;;;;5.63;4.47;;;23.30;99.90;;;;;;4442586;28;657716;-68
2021/08/13 07:46:45;;;;;;;6.57;4.20;;;23.40;99.90;;;;;;4386898;28;657609;-68
2021/08/13 07:49:33;;;;;;;4.77;4.03;;;23.40;99.90;;;;;;4418965;28;656582;-68
2021/08/13 07:52:21;;;;;;;6.43;4.37;;;23.60;99.90;;;;;;4441482;28;657447;-67
2021/08/13 07:55:09;;;;;;;7.13;4.20;;;23.60;99.90;;;;;;4419931;28;656446;-67
2021/08/13 07:57:56;;;;;;;6.33;4.27;;;23.70;99.90;;;;;;4432621;28;656774;-68
2021/08/13 08:00:45;;;;;;;8.60;4.50;;;23.90;99.90;;;;;;4415664;28;656519;-68
2021/08/13 08:03:33;;;;;;;6.53;4.30;;;24.00;99.90;;;;;;4426210;28;656493;-68
2021/08/13 08:06:21;;;;;;;6.10;4.30;;;24.10;99.90;;;;;;4439553;28;657775;-68
2021/08/13 08:09:08;;;;;;;5.63;4.50;;;24.20;99.90;;;;;;4425468;28;656526;-68
2021/08/13 08:11:56;;;;;;;7.43;4.60;;;24.50;99.90;;;;;;4448119;28;656906;-68
2021/08/13 08:14:43;;;;;;;7.47;4.63;;;24.60;99.90;;;;;;4420477;28;657381;-68
2021/08/13 08:17:32;;;;;;;7.95;4.60;;;24.80;99.90;;;;;;4432154;28;657626;-69
2021/08/13 08:20:20;;;;;;;6.15;4.57;;;24.50;99.90;;;;;;4422498;28;657366;-69
2021/08/13 08:23:08;;;;;;;12.73;4.43;;;24.60;99.90;;;;;;4425830;28;656947;-68
2021/08/13 08:25:56;;;;;;;6.40;5.00;;;24.50;99.90;;;;;;4442735;28;658711;-68
2021/08/13 08:28:45;;;;;;;12.27;5.23;;;24.40;99.90;;;;;;4426122;28;656465;-68
2021/08/13 08:31:33;;;;;;;9.80;5.60;;;24.40;99.90;;;;;;4439225;28;659203;-68
2021/08/13 08:34:22;;;;;;;10.87;4.50;;;24.60;99.90;;;;;;4449200;28;657312;-67
2021/08/13 08:37:11;;;;;;;13.40;5.30;;;24.60;99.90;;;;;;4407838;28;658703;-68
2021/08/13 08:39:59;;;;;;;6.85;5.00;;;24.60;99.90;;;;;;4417664;28;658056;-68
2021/08/13 08:42:46;;;;;;;12.20;5.40;;;24.70;99.90;;;;;;4450596;28;657309;-67
2021/08/13 08:45:35;;;;;;;9.38;5.50;;;25.00;99.90;;;;;;4405062;28;657644;-68
2021/08/13 08:48:23;;;;;;;14.02;5.32;;;25.30;99.90;;;;;;4414809;28;656366;-68
2021/08/13 08:51:12;;;;;;;19.58;9.35;;;25.60;99.90;;;;;;4433907;28;658001;-68
2021/08/13 08:54:00;;;;;;;11.80;6.22;;;25.70;99.90;;;;;;4411909;28;658743;-68
2021/08/13 08:56:48;;;;;;;9.32;5.50;;;25.90;99.90;;;;;;4413409;28;657672;-68
2021/08/13 08:59:36;;;;;;;8.45;5.68;;;26.10;99.90;;;;;;4430145;28;657564;-67
2021/08/13 09:02:23;;;;;;;10.32;5.85;;;26.20;99.90;;;;;;4401030;28;656614;-68
2021/08/13 09:05:11;;;;;;;10.30;5.80;;;26.20;99.90;;;;;;4429846;28;657907;-68
2021/08/13 09:08:01;;;;;;;11.15;5.85;;;26.40;99.90;;;;;;4425022;28;657861;-68
2021/08/13 09:10:48;;;;;;;7.50;5.30;;;26.50;99.90;;;;;;4421886;28;657992;-68
2021/08/13 09:13:38;;;;;;;11.18;5.13;;;26.60;99.90;;;;;;4434428;28;656983;-68
2021/08/13 09:16:25;;;;;;;13.55;5.32;;;26.80;99.90;;;;;;4402680;28;658385;-68
2021/08/13 09:19:13;;;;;;;8.10;4.47;;;27.00;99.90;;;;;;4415703;28;657959;-68
2021/08/13 09:22:08;;;;;;;10.07;4.60;;;27.10;99.90;;;;;;4437026;28;657234;-68
2021/08/13 09:24:57;;;;;;;9.77;5.22;;;27.20;99.90;;;;;;4405315;28;657943;-68
2021/08/13 09:27:47;;;;;;;10.95;4.93;;;27.00;99.90;;;;;;4401540;28;657594;-68
2021/08/13 09:30:34;;;;;;;9.43;4.68;;;27.30;99.90;;;;;;4397061;28;657551;-69
2021/08/13 09:33:22;;;;;;;9.32;5.03;;;27.60;99.90;;;;;;4430670;28;656280;-69
2021/08/13 09:36:09;;;;;;;8.88;4.63;;;27.70;99.90;;;;;;4396236;28;657346;-69
2021/08/13 09:39:07;;;;;;;17.20;5.03;;;27.80;99.90;;;;;;4420427;28;656801;-69
2021/08/13 09:41:56;;;;;;;8.95;5.65;;;28.20;99.90;;;;;;4375284;28;658389;-69
2021/08/13 09:44:44;;;;;;;9.48;4.78;;;28.20;99.90;;;;;;4402988;28;656771;-69
2021/08/13 09:47:42;;;;;;;8.65;4.60;;;28.50;99.90;;;;;;4433601;28;657706;-69
2021/08/13 09:50:37;;;;;;;11.30;4.68;;;28.60;99.90;;;;;;4398988;28;657073;-69
2021/08/13 09:53:25;;;;;;;9.93;3.88;;;28.70;99.90;;;;;;4417424;28;658059;-69
2021/08/13 09:56:26;;;;;;;6.80;4.07;;;28.70;99.90;;;;;;4442853;28;656457;-69
2021/08/13 09:59:16;;;;;;;13.73;4.22;;;28.70;99.90;;;;;;4389181;28;656828;-69
2021/08/13 10:02:11;;;;;;;8.70;4.05;;;28.70;99.90;;;;;;4420360;28;658255;-69
2021/08/13 10:04:58;;;;;;;4.82;3.47;;;28.80;99.90;;;;;;4380007;28;657134;-69
2021/08/13 10:07:47;;;;;;;9.02;3.95;;;29.00;99.90;;;;;;4424565;28;657749;-69
2021/08/13 10:10:35;;;;;;;6.25;3.78;;;29.30;99.90;;;;;;4398817;28;657314;-69
2021/08/13 10:13:23;;;;;;;6.30;3.58;;;29.30;98.00;;;;;;4420939;28;656554;-69
2021/08/13 10:16:12;;;;;;;7.28;3.92;;;29.40;97.80;;;;;;4422994;28;658324;-69
2021/08/13 10:19:01;;;;;;;5.47;3.90;;;29.00;97.30;;;;;;4410684;28;657583;-69
2021/08/13 10:21:49;;;;;;;8.88;3.92;;;28.70;98.80;;;;;;4408075;28;656774;-68
2021/08/13 10:24:36;;;;;;;5.65;3.70;;;28.90;99.40;;;;;;4417370;28;657630;-69
2021/08/13 10:27:25;;;;;;;7.00;4.00;;;29.10;99.10;;;;;;4426381;28;656707;-69
2021/08/13 10:30:13;;;;;;;9.68;3.83;;;29.60;97.50;;;;;;4431589;28;656959;-69
2021/08/13 10:33:03;;;;;;;5.55;3.70;;;29.90;96.30;;;;;;4411353;28;657223;-69
2021/08/13 10:35:53;;;;;;;6.22;3.95;;;30.10;96.00;;;;;;4415471;28;657041;-68
2021/08/13 10:38:40;;;;;;;7.30;3.83;;;30.00;92.80;;;;;;4422520;28;656966;-68
2021/08/13 10:41:28;;;;;;;5.65;3.83;;;30.20;95.70;;;;;;4420720;28;656717;-69
2021/08/13 10:44:17;;;;;;;5.97;3.75;;;30.30;94.60;;;;;;4444142;28;656484;-68
2021/08/13 10:47:10;;;;;;;8.52;4.22;;;30.40;93.50;;;;;;4422665;28;658813;-69
2021/08/13 10:49:58;;;;;;;10.55;4.28;;;30.40;94.60;;;;;;4410988;28;657065;-68
2021/08/13 10:52:46;;;;;;;4.23;3.43;;;30.10;92.50;;;;;;4412694;28;658626;-69
2021/08/13 10:55:42;;;;;;;6.97;3.50;;;30.40;94.40;;;;;;4425335;28;656215;-69
2021/08/13 10:58:48;;;;;;;5.60;3.40;;;30.80;92.80;;;;;;4389180;28;656387;-69
2021/08/13 11:01:36;;;;;;;6.00;3.88;;;30.50;90.10;;;;;;4390087;28;657210;-68
2021/08/13 11:04:25;;;;;;;6.78;3.88;;;30.30;92.60;;;;;;4423615;28;657000;-68
2021/08/13 11:07:14;;;;;;;3.53;3.22;;;30.60;91.40;;;;;;4435605;28;657377;-69
2021/08/13 11:10:02;;;;;;;7.80;3.53;;;30.60;92.00;;;;;;4422102;28;656875;-68
2021/08/13 11:13:10;;;;;;;8.47;4.57;;;30.70;92.20;;;;;;4412985;28;656451;-68
2021/08/13 11:15:58;;;;;;;7.13;3.50;;;30.90;90.70;;;;;;4419879;28;656465;-69
2021/08/13 11:18:50;;;;;;;4.75;3.80;;;30.90;90.50;;;;;;4418005;28;657283;-68
2021/08/13 11:21:40;;;;;;;6.18;3.83;;;30.80;90.20;;;;;;4413410;28;656732;-68
2021/08/13 11:24:52;;;;;;;5.32;3.58;;;31.00;89.10;;;;;;4441982;28;656830;-68
2021/08/13 11:27:40;;;;;;;8.35;3.63;;;30.70;90.40;;;;;;4401686;28;656983;-68
2021/08/13 11:30:40;;;;;;;5.80;3.38;;;30.50;87.30;;;;;;4439804;28;657174;-68
2021/08/13 11:33:52;;;;;;;5.53;3.80;;;30.30;90.60;;;;;;4421408;28;656825;-68
2021/08/13 11:36:56;;;;;;;6.40;4.00;;;29.80;90.00;;;;;;4415945;28;657339;-68
2021/08/13 11:39:45;;;;;;;7.38;4.07;;;29.80;90.90;;;;;;4390075;28;657181;-68
2021/08/13 11:42:34;;;;;;;4.25;3.50;;;30.20;91.00;;;;;;4432841;28;656706;-68
2021/08/13 11:45:21;;;;;;;7.20;3.95;;;30.70;91.80;;;;;;4433844;28;657334;-68
2021/08/13 11:48:10;;;;;;;5.95;3.78;;;31.00;87.30;;;;;;4429728;28;656235;-68
2021/08/13 11:50:58;;;;;;;4.78;3.70;;;30.90;87.60;;;;;;4423589;28;656243;-68
2021/08/13 11:53:46;;;;;;;10.50;3.88;;;31.20;90.20;;;;;;4444538;28;657078;-68
2021/08/13 11:56:36;;;;;;;10.13;4.13;;;31.40;89.30;;;;;;4417151;28;657814;-68
2021/08/13 11:59:23;;;;;;;5.10;3.53;;;32.10;81.90;;;;;;4415065;28;657430;-68
2021/08/13 12:02:11;;;;;;;6.30;3.55;;;32.20;87.40;;;;;;4436679;28;657532;-68
2021/08/13 12:05:05;;;;;;;6.60;3.78;;;32.60;85.00;;;;;;4419469;28;656435;-68
2021/08/13 12:07:58;;;;;;;7.70;3.58;;;33.10;80.70;;;;;;4401259;28;656738;-68
2021/08/13 12:10:47;;;;;;;6.70;3.78;;;32.10;73.60;;;;;;4423952;28;657405;-68
2021/08/13 12:13:36;;;;;;;7.57;3.87;;;32.20;80.00;;;;;;4416856;28;656795;-69
2021/08/13 12:16:23;;;;;;;5.82;3.88;;;32.10;80.20;;;;;;4415420;28;656924;-68
2021/08/13 12:19:11;;;;;;;6.25;3.63;;;31.70;75.60;;;;;;4441008;28;657533;-68
2021/08/13 12:22:00;;;;;;;4.35;3.55;;;31.80;80.50;;;;;;4420711;28;656750;-68
2021/08/13 12:24:48;;;;;;;7.68;3.47;;;32.00;78.30;;;;;;4436312;28;656770;-68
2021/08/13 12:27:37;;;;;;;7.07;3.20;;;31.70;73.40;;;;;;4447193;28;658104;-68
2021/08/13 12:30:26;;;;;;;7.78;3.80;;;31.60;74.90;;;;;;4415803;28;656655;-68
2021/08/13 12:33:17;;;;;;;6.10;3.20;;;31.70;78.00;;;;;;4413670;28;656361;-68
2021/08/13 12:36:14;;;;;;;6.68;3.22;;;31.60;74.20;;;;;;4420616;28;657789;-69
2021/08/13 12:39:02;;;;;;;6.05;3.22;;;31.60;73.10;;;;;;4408884;28;656576;-69
2021/08/13 12:41:49;;;;;;;9.90;3.70;;;31.60;78.70;;;;;;4405966;28;656605;-69
2021/08/13 12:44:39;;;;;;;6.43;2.92;;;31.70;75.20;;;;;;4431862;28;656721;-68
2021/08/13 12:47:28;;;;;;;6.22;3.30;;;31.40;74.60;;;;;;4420153;28;657435;-69
2021/08/13 12:50:16;;;;;;;5.68;3.58;;;31.80;78.00;;;;;;4410820;28;657144;-67
2021/08/13 12:53:09;;;;;;;6.05;3.50;;;31.80;72.50;;;;;;4416428;28;656661;-68
2021/08/13 12:55:56;;;;;;;3.77;3.07;;;31.70;75.30;;;;;;4400065;28;657685;-69
2021/08/13 12:58:44;;;;;;;6.35;4.05;;;31.40;74.30;;;;;;4420360;28;656448;-67
2021/08/13 13:01:33;;;;;;;7.55;3.42;;;31.60;76.70;;;;;;4439718;28;656329;-67
2021/08/13 13:04:22;;;;;;;5.70;3.63;;;32.00;78.30;;;;;;4415640;28;657356;-68
2021/08/13 13:07:10;;;;;;;6.07;3.55;;;31.60;73.10;;;;;;4410473;28;656890;-68
2021/08/13 13:09:58;;;;;;;8.02;3.95;;;31.40;76.00;;;;;;4428102;28;656540;-68
2021/08/13 13:12:46;;;;;;;7.18;3.63;;;31.50;79.80;;;;;;4435278;28;656367;-67
2021/08/13 13:15:34;;;;;;;6.40;3.95;;;31.40;75.00;;;;;;4409185;28;656401;-67
2021/08/13 13:18:25;;;;;;;5.78;3.80;;;31.50;74.30;;;;;;4444468;28;656406;-67
2021/08/13 13:21:24;;;;;;;7.00;4.10;;;31.30;75.40;;;;;;4409394;28;656536;-68
2021/08/13 13:24:24;;;;;;;6.57;3.88;;;31.60;74.20;;;;;;4411650;28;656486;-68
2021/08/13 13:27:12;;;;;;;11.18;3.80;;;32.00;76.20;;;;;;4414380;28;656768;-67
2021/08/13 13:30:00;;;;;;;8.02;4.00;;;32.20;77.20;;;;;;4411199;28;657452;-68
2021/08/13 13:32:58;;;;;;;5.57;3.53;;;32.30;77.10;;;;;;4431103;28;656328;-67
2021/08/13 13:35:46;;;;;;;5.03;3.80;;;32.10;72.90;;;;;;4414569;28;657216;-68
2021/08/13 13:38:36;;;;;;;5.05;3.45;;;32.10;80.80;;;;;;4417652;28;656408;-68
2021/08/13 13:41:23;;;;;;;9.10;3.75;;;32.10;78.30;;;;;;4407814;28;657211;-68
2021/08/13 13:44:11;;;;;;;8.45;3.92;;;32.60;77.00;;;;;;4436845;28;657675;-67
2021/08/13 13:46:59;;;;;;;8.38;3.63;;;32.80;72.20;;;;;;4404962;28;656854;-68
2021/08/13 13:49:46;;;;;;;6.72;4.00;;;32.40;70.70;;;;;;4437618;28;657546;-68
2021/08/13 13:52:34;;;;;;;9.32;3.90;;;32.30;74.50;;;;;;4408702;28;656938;-68
2021/08/13 13:55:25;;;;;;;4.97;3.60;;;32.20;71.20;;;;;;4415411;28;656716;-68
2021/08/13 13:58:12;;;;;;;6.47;3.63;;;32.50;76.90;;;;;;4400451;28;656635;-68
2021/08/13 14:01:00;;;;;;;6.07;3.80;;;32.80;74.00;;;;;;4407230;28;657685;-68
2021/08/13 14:03:48;;;;;;;7.47;4.10;;;32.60;74.10;;;;;;4424872;28;656599;-68
2021/08/13 14:06:36;;;;;;;7.18;3.72;;;32.00;72.20;;;;;;4422134;28;657708;-68
2021/08/13 14:09:23;;;;;;;6.50;3.95;;;32.20;77.00;;;;;;4420516;28;656393;-68
2021/08/13 14:12:12;;;;;;;7.85;3.83;;;32.40;75.60;;;;;;4445383;28;657616;-68
2021/08/13 14:15:00;;;;;;;4.80;3.83;;;32.60;73.10;;;;;;4427662;28;657786;-68
2021/08/13 14:17:47;;;;;;;6.72;3.92;;;32.50;69.50;;;;;;4430930;28;656213;-67
2021/08/13 14:20:35;;;;;;;9.30;3.78;;;32.20;72.50;;;;;;4420955;28;658008;-67
2021/08/13 14:23:23;;;;;;;9.75;3.88;;;32.10;72.00;;;;;;4441823;28;656142;-68